sensor_id;sensor_type;location;lat;lon;timestamp;P1;durP1;ratioP1;P2;durP2;ratioP2
7665;SDS011;3875;46.562;4.898;2022-07-22T00:01:45;6.10;;;4.80;;
7665;SDS011;3875;46.562;4.898;2022-07-22T00:04:11;4.63;;;4.10;;
7665;SDS011;3875;46.562;4.898;2022-07-22T00:06:36;5.67;;;4.67;;
7665;SDS011;3875;46.562;4.898;2022-07-22T00:09:03;6.90;;;4.20;;
7665;SDS011;3875;46.562;4.898;2022-07-22T00:11:29;6.60;;;4.20;;
7665;SDS011;3875;46.562;4.898;2022-07-22T00:13:55;4.53;;;4.13;;
7665;SDS011;3875;46.562;4.898;2022-07-22T00:16:20;4.47;;;4.07;;
7665;SDS011;3875;46.562;4.898;2022-07-22T00:18:46;5.97;;;4.93;;
7665;SDS011;3875;46.562;4.898;2022-07-22T00:21:12;4.40;;;3.90;;
7665;SDS011;3875;46.562;4.898;2022-07-22T00:23:37;7.20;;;5.03;;
7665;SDS011;3875;46.562;4.898;2022-07-22T00:26:03;5.43;;;4.57;;
7665;SDS011;3875;46.562;4.898;2022-07-22T00:28:29;5.37;;;4.67;;
7665;SDS011;3875;46.562;4.898;2022-07-22T00:30:55;7.40;;;5.07;;
7665;SDS011;3875;46.562;4.898;2022-07-22T00:33:21;6.13;;;4.57;;
7665;SDS011;3875;46.562;4.898;2022-07-22T00:35:47;5.97;;;4.70;;
7665;SDS011;3875;46.562;4.898;2022-07-22T00:38:13;5.87;;;5.27;;
7665;SDS011;3875;46.562;4.898;2022-07-22T00:40:39;5.70;;;4.90;;
7665;SDS011;3875;46.562;4.898;2022-07-22T00:43:05;7.10;;;5.37;;
7665;SDS011;3875;46.562;4.898;2022-07-22T00:45:30;7.33;;;4.77;;
7665;SDS011;3875;46.562;4.898;2022-07-22T00:47:56;6.00;;;4.83;;
7665;SDS011;3875;46.562;4.898;2022-07-22T00:50:22;7.13;;;5.27;;
7665;SDS011;3875;46.562;4.898;2022-07-22T00:52:49;7.20;;;5.00;;
7665;SDS011;3875;46.562;4.898;2022-07-22T00:55:15;6.77;;;4.60;;
7665;SDS011;3875;46.562;4.898;2022-07-22T00:57:41;7.73;;;5.33;;
7665;SDS011;3875;46.562;4.898;2022-07-22T01:00:08;6.40;;;5.37;;
7665;SDS011;3875;46.562;4.898;2022-07-22T01:02:38;5.90;;;4.80;;
7665;SDS011;3875;46.562;4.898;2022-07-22T01:05:04;6.97;;;5.27;;
7665;SDS011;3875;46.562;4.898;2022-07-22T01:07:30;10.33;;;5.30;;
7665;SDS011;3875;46.562;4.898;2022-07-22T01:09:56;11.63;;;5.43;;
7665;SDS011;3875;46.562;4.898;2022-07-22T01:12:22;5.90;;;4.90;;
7665;SDS011;3875;46.562;4.898;2022-07-22T01:14:48;8.33;;;5.30;;
7665;SDS011;3875;46.562;4.898;2022-07-22T01:17:13;7.50;;;4.80;;
7665;SDS011;3875;46.562;4.898;2022-07-22T01:19:39;5.83;;;4.87;;
7665;SDS011;3875;46.562;4.898;2022-07-22T01:22:06;10.50;;;5.30;;
7665;SDS011;3875;46.562;4.898;2022-07-22T01:24:32;5.53;;;5.03;;
7665;SDS011;3875;46.562;4.898;2022-07-22T01:26:58;7.43;;;5.13;;
7665;SDS011;3875;46.562;4.898;2022-07-22T01:29:24;8.67;;;5.40;;
7665;SDS011;3875;46.562;4.898;2022-07-22T01:31:50;6.17;;;5.57;;
7665;SDS011;3875;46.562;4.898;2022-07-22T01:34:16;6.60;;;5.53;;
7665;SDS011;3875;46.562;4.898;2022-07-22T01:36:42;5.83;;;4.90;;
7665;SDS011;3875;46.562;4.898;2022-07-22T01:39:08;5.90;;;5.10;;
7665;SDS011;3875;46.562;4.898;2022-07-22T01:41:33;7.80;;;5.20;;
7665;SDS011;3875;46.562;4.898;2022-07-22T01:43:59;6.90;;;5.13;;
7665;SDS011;3875;46.562;4.898;2022-07-22T01:46:25;9.10;;;5.43;;
7665;SDS011;3875;46.562;4.898;2022-07-22T01:48:51;5.80;;;4.93;;
7665;SDS011;3875;46.562;4.898;2022-07-22T01:51:17;7.13;;;5.43;;
7665;SDS011;3875;46.562;4.898;2022-07-22T01:53:43;6.33;;;5.00;;
7665;SDS011;3875;46.562;4.898;2022-07-22T01:56:09;5.47;;;4.97;;
7665;SDS011;3875;46.562;4.898;2022-07-22T01:58:35;6.63;;;5.30;;
7665;SDS011;3875;46.562;4.898;2022-07-22T02:01:01;8.13;;;4.90;;
7665;SDS011;3875;46.562;4.898;2022-07-22T02:03:26;5.17;;;4.67;;
7665;SDS011;3875;46.562;4.898;2022-07-22T02:05:52;6.17;;;5.57;;
7665;SDS011;3875;46.562;4.898;2022-07-22T02:08:18;5.90;;;5.30;;
7665;SDS011;3875;46.562;4.898;2022-07-22T02:10:44;9.37;;;5.33;;
7665;SDS011;3875;46.562;4.898;2022-07-22T02:13:10;7.90;;;5.33;;
7665;SDS011;3875;46.562;4.898;2022-07-22T02:15:36;7.53;;;5.20;;
7665;SDS011;3875;46.562;4.898;2022-07-22T02:18:09;6.83;;;5.10;;
7665;SDS011;3875;46.562;4.898;2022-07-22T02:20:39;8.93;;;5.77;;
7665;SDS011;3875;46.562;4.898;2022-07-22T02:23:06;8.20;;;5.53;;
7665;SDS011;3875;46.562;4.898;2022-07-22T02:25:32;6.33;;;5.30;;
7665;SDS011;3875;46.562;4.898;2022-07-22T02:27:58;9.00;;;6.03;;
7665;SDS011;3875;46.562;4.898;2022-07-22T02:30:24;7.27;;;5.40;;
7665;SDS011;3875;46.562;4.898;2022-07-22T02:32:49;7.00;;;5.57;;
7665;SDS011;3875;46.562;4.898;2022-07-22T02:35:15;5.90;;;5.30;;
7665;SDS011;3875;46.562;4.898;2022-07-22T02:37:41;6.27;;;5.67;;
7665;SDS011;3875;46.562;4.898;2022-07-22T02:40:07;5.23;;;4.77;;
7665;SDS011;3875;46.562;4.898;2022-07-22T02:42:33;9.70;;;5.40;;
7665;SDS011;3875;46.562;4.898;2022-07-22T02:44:59;5.90;;;5.13;;
7665;SDS011;3875;46.562;4.898;2022-07-22T02:47:25;6.20;;;5.30;;
7665;SDS011;3875;46.562;4.898;2022-07-22T02:49:51;8.10;;;5.43;;
7665;SDS011;3875;46.562;4.898;2022-07-22T02:52:17;5.87;;;5.20;;
7665;SDS011;3875;46.562;4.898;2022-07-22T02:54:43;8.20;;;5.13;;
7665;SDS011;3875;46.562;4.898;2022-07-22T02:57:08;5.80;;;5.20;;
7665;SDS011;3875;46.562;4.898;2022-07-22T02:59:34;6.93;;;5.40;;
7665;SDS011;3875;46.562;4.898;2022-07-22T03:02:00;6.20;;;5.60;;
7665;SDS011;3875;46.562;4.898;2022-07-22T03:04:26;7.40;;;5.10;;
7665;SDS011;3875;46.562;4.898;2022-07-22T03:06:52;5.73;;;5.17;;
7665;SDS011;3875;46.562;4.898;2022-07-22T03:09:17;11.10;;;6.10;;
7665;SDS011;3875;46.562;4.898;2022-07-22T03:11:44;6.40;;;4.80;;
7665;SDS011;3875;46.562;4.898;2022-07-22T03:14:10;6.90;;;5.93;;
7665;SDS011;3875;46.562;4.898;2022-07-22T03:16:36;7.03;;;5.07;;
7665;SDS011;3875;46.562;4.898;2022-07-22T03:19:02;7.80;;;5.40;;
7665;SDS011;3875;46.562;4.898;2022-07-22T03:21:28;5.80;;;5.30;;
7665;SDS011;3875;46.562;4.898;2022-07-22T03:23:53;6.90;;;5.23;;
7665;SDS011;3875;46.562;4.898;2022-07-22T03:26:20;6.73;;;5.30;;
7665;SDS011;3875;46.562;4.898;2022-07-22T03:28:46;7.27;;;5.40;;
7665;SDS011;3875;46.562;4.898;2022-07-22T03:31:12;6.80;;;5.37;;
7665;SDS011;3875;46.562;4.898;2022-07-22T03:33:38;6.00;;;5.43;;
7665;SDS011;3875;46.562;4.898;2022-07-22T03:36:04;6.23;;;5.30;;
7665;SDS011;3875;46.562;4.898;2022-07-22T03:38:35;6.47;;;5.37;;
7665;SDS011;3875;46.562;4.898;2022-07-22T03:41:02;5.90;;;5.30;;
7665;SDS011;3875;46.562;4.898;2022-07-22T03:43:28;6.90;;;5.90;;
7665;SDS011;3875;46.562;4.898;2022-07-22T03:45:54;8.50;;;5.57;;
7665;SDS011;3875;46.562;4.898;2022-07-22T03:48:20;9.07;;;5.80;;
7665;SDS011;3875;46.562;4.898;2022-07-22T03:50:46;6.67;;;5.43;;
7665;SDS011;3875;46.562;4.898;2022-07-22T03:53:12;7.10;;;5.87;;
7665;SDS011;3875;46.562;4.898;2022-07-22T03:55:37;10.77;;;5.60;;
7665;SDS011;3875;46.562;4.898;2022-07-22T03:58:03;7.73;;;5.77;;
7665;SDS011;3875;46.562;4.898;2022-07-22T04:00:29;8.70;;;6.07;;
7665;SDS011;3875;46.562;4.898;2022-07-22T04:02:55;6.83;;;6.13;;
7665;SDS011;3875;46.562;4.898;2022-07-22T04:05:20;6.47;;;5.50;;
7665;SDS011;3875;46.562;4.898;2022-07-22T04:07:46;7.03;;;5.80;;
7665;SDS011;3875;46.562;4.898;2022-07-22T04:10:12;9.40;;;6.07;;
7665;SDS011;3875;46.562;4.898;2022-07-22T04:12:38;7.63;;;5.57;;
7665;SDS011;3875;46.562;4.898;2022-07-22T04:15:05;7.93;;;5.57;;
7665;SDS011;3875;46.562;4.898;2022-07-22T04:17:32;9.13;;;6.07;;
7665;SDS011;3875;46.562;4.898;2022-07-22T04:19:58;6.47;;;5.80;;
7665;SDS011;3875;46.562;4.898;2022-07-22T04:22:25;6.37;;;5.77;;
7665;SDS011;3875;46.562;4.898;2022-07-22T04:24:51;13.20;;;5.87;;
7665;SDS011;3875;46.562;4.898;2022-07-22T04:27:17;6.23;;;5.63;;
7665;SDS011;3875;46.562;4.898;2022-07-22T04:29:43;7.30;;;5.40;;
7665;SDS011;3875;46.562;4.898;2022-07-22T04:32:08;6.63;;;5.70;;
7665;SDS011;3875;46.562;4.898;2022-07-22T04:34:34;6.67;;;5.97;;
7665;SDS011;3875;46.562;4.898;2022-07-22T04:37:00;7.77;;;6.13;;
7665;SDS011;3875;46.562;4.898;2022-07-22T04:39:26;6.20;;;5.37;;
7665;SDS011;3875;46.562;4.898;2022-07-22T04:41:51;8.27;;;5.80;;
7665;SDS011;3875;46.562;4.898;2022-07-22T04:44:17;7.07;;;5.73;;
7665;SDS011;3875;46.562;4.898;2022-07-22T04:46:43;7.90;;;6.13;;
7665;SDS011;3875;46.562;4.898;2022-07-22T04:49:08;7.37;;;6.20;;
7665;SDS011;3875;46.562;4.898;2022-07-22T04:51:34;6.87;;;6.20;;
7665;SDS011;3875;46.562;4.898;2022-07-22T04:54:00;9.37;;;5.07;;
7665;SDS011;3875;46.562;4.898;2022-07-22T04:56:25;8.33;;;5.87;;
7665;SDS011;3875;46.562;4.898;2022-07-22T04:58:51;11.20;;;6.03;;
7665;SDS011;3875;46.562;4.898;2022-07-22T05:01:17;7.27;;;5.87;;
7665;SDS011;3875;46.562;4.898;2022-07-22T05:03:43;6.77;;;5.40;;
7665;SDS011;3875;46.562;4.898;2022-07-22T05:06:08;7.00;;;6.30;;
7665;SDS011;3875;46.562;4.898;2022-07-22T05:08:34;8.93;;;5.57;;
7665;SDS011;3875;46.562;4.898;2022-07-22T05:11:01;7.37;;;5.83;;
7665;SDS011;3875;46.562;4.898;2022-07-22T05:13:27;10.43;;;5.93;;
7665;SDS011;3875;46.562;4.898;2022-07-22T05:15:53;7.67;;;5.83;;
7665;SDS011;3875;46.562;4.898;2022-07-22T05:18:19;5.97;;;5.40;;
7665;SDS011;3875;46.562;4.898;2022-07-22T05:20:44;9.23;;;5.60;;
7665;SDS011;3875;46.562;4.898;2022-07-22T05:23:10;9.87;;;6.40;;
7665;SDS011;3875;46.562;4.898;2022-07-22T05:25:36;9.93;;;6.27;;
7665;SDS011;3875;46.562;4.898;2022-07-22T05:28:02;7.57;;;6.70;;
7665;SDS011;3875;46.562;4.898;2022-07-22T05:30:27;7.73;;;5.77;;
7665;SDS011;3875;46.562;4.898;2022-07-22T05:32:53;6.43;;;5.83;;
7665;SDS011;3875;46.562;4.898;2022-07-22T05:35:19;7.50;;;6.50;;
7665;SDS011;3875;46.562;4.898;2022-07-22T05:37:45;6.67;;;5.40;;
7665;SDS011;3875;46.562;4.898;2022-07-22T05:40:12;10.73;;;6.77;;
7665;SDS011;3875;46.562;4.898;2022-07-22T05:42:37;7.33;;;5.83;;
7665;SDS011;3875;46.562;4.898;2022-07-22T05:45:03;6.20;;;5.53;;
7665;SDS011;3875;46.562;4.898;2022-07-22T05:47:29;6.83;;;6.13;;
7665;SDS011;3875;46.562;4.898;2022-07-22T05:49:55;6.80;;;5.97;;
7665;SDS011;3875;46.562;4.898;2022-07-22T05:52:21;8.83;;;5.70;;
7665;SDS011;3875;46.562;4.898;2022-07-22T05:54:47;6.93;;;6.07;;
7665;SDS011;3875;46.562;4.898;2022-07-22T05:57:12;6.23;;;4.97;;
7665;SDS011;3875;46.562;4.898;2022-07-22T05:59:38;7.53;;;5.40;;
7665;SDS011;3875;46.562;4.898;2022-07-22T06:02:04;6.90;;;6.20;;
7665;SDS011;3875;46.562;4.898;2022-07-22T06:04:30;7.07;;;6.13;;
7665;SDS011;3875;46.562;4.898;2022-07-22T06:06:56;8.43;;;6.30;;
7665;SDS011;3875;46.562;4.898;2022-07-22T06:09:22;7.57;;;6.27;;
7665;SDS011;3875;46.562;4.898;2022-07-22T06:11:48;6.40;;;5.53;;
7665;SDS011;3875;46.562;4.898;2022-07-22T06:14:13;7.53;;;6.13;;
7665;SDS011;3875;46.562;4.898;2022-07-22T06:16:39;9.20;;;5.83;;
7665;SDS011;3875;46.562;4.898;2022-07-22T06:19:05;6.80;;;5.87;;
7665;SDS011;3875;46.562;4.898;2022-07-22T06:21:30;6.33;;;5.63;;
7665;SDS011;3875;46.562;4.898;2022-07-22T06:23:56;5.83;;;5.23;;
7665;SDS011;3875;46.562;4.898;2022-07-22T06:26:22;6.67;;;5.43;;
7665;SDS011;3875;46.562;4.898;2022-07-22T06:28:48;7.87;;;5.77;;
7665;SDS011;3875;46.562;4.898;2022-07-22T06:31:14;7.30;;;5.90;;
7665;SDS011;3875;46.562;4.898;2022-07-22T06:33:41;8.97;;;6.33;;
7665;SDS011;3875;46.562;4.898;2022-07-22T06:36:07;7.67;;;6.10;;
7665;SDS011;3875;46.562;4.898;2022-07-22T06:38:33;8.03;;;6.30;;
7665;SDS011;3875;46.562;4.898;2022-07-22T06:40:59;7.37;;;5.73;;
7665;SDS011;3875;46.562;4.898;2022-07-22T06:43:24;7.43;;;6.10;;
7665;SDS011;3875;46.562;4.898;2022-07-22T06:45:52;6.23;;;5.60;;
7665;SDS011;3875;46.562;4.898;2022-07-22T06:48:17;17.40;;;6.57;;
7665;SDS011;3875;46.562;4.898;2022-07-22T06:50:43;11.43;;;6.07;;
7665;SDS011;3875;46.562;4.898;2022-07-22T06:53:09;6.90;;;6.20;;
7665;SDS011;3875;46.562;4.898;2022-07-22T06:55:35;8.00;;;5.90;;
7665;SDS011;3875;46.562;4.898;2022-07-22T06:58:00;7.17;;;6.47;;
7665;SDS011;3875;46.562;4.898;2022-07-22T07:00:26;8.67;;;6.17;;
7665;SDS011;3875;46.562;4.898;2022-07-22T07:02:52;9.87;;;5.87;;
7665;SDS011;3875;46.562;4.898;2022-07-22T07:05:17;6.50;;;5.80;;
7665;SDS011;3875;46.562;4.898;2022-07-22T07:07:43;6.70;;;5.80;;
7665;SDS011;3875;46.562;4.898;2022-07-22T07:10:09;10.27;;;6.47;;
7665;SDS011;3875;46.562;4.898;2022-07-22T07:12:36;7.27;;;5.80;;
7665;SDS011;3875;46.562;4.898;2022-07-22T07:15:02;11.13;;;6.60;;
7665;SDS011;3875;46.562;4.898;2022-07-22T07:17:28;6.90;;;6.30;;
7665;SDS011;3875;46.562;4.898;2022-07-22T07:19:54;8.03;;;6.50;;
7665;SDS011;3875;46.562;4.898;2022-07-22T07:22:20;6.63;;;6.03;;
7665;SDS011;3875;46.562;4.898;2022-07-22T07:24:46;7.23;;;5.60;;
7665;SDS011;3875;46.562;4.898;2022-07-22T07:27:11;8.60;;;6.40;;
7665;SDS011;3875;46.562;4.898;2022-07-22T07:29:37;6.87;;;6.27;;
7665;SDS011;3875;46.562;4.898;2022-07-22T07:32:03;10.40;;;6.33;;
7665;SDS011;3875;46.562;4.898;2022-07-22T07:34:29;7.70;;;6.90;;
7665;SDS011;3875;46.562;4.898;2022-07-22T07:36:54;6.80;;;6.07;;
7665;SDS011;3875;46.562;4.898;2022-07-22T07:39:20;6.60;;;5.97;;
7665;SDS011;3875;46.562;4.898;2022-07-22T07:41:46;7.03;;;6.33;;
7665;SDS011;3875;46.562;4.898;2022-07-22T07:44:12;7.80;;;6.03;;
7665;SDS011;3875;46.562;4.898;2022-07-22T07:46:37;7.87;;;6.33;;
7665;SDS011;3875;46.562;4.898;2022-07-22T07:49:03;6.53;;;5.60;;
7665;SDS011;3875;46.562;4.898;2022-07-22T07:51:29;7.60;;;6.20;;
7665;SDS011;3875;46.562;4.898;2022-07-22T07:53:54;7.40;;;6.57;;
7665;SDS011;3875;46.562;4.898;2022-07-22T07:56:20;9.37;;;6.60;;
7665;SDS011;3875;46.562;4.898;2022-07-22T07:58:46;8.27;;;6.80;;
7665;SDS011;3875;46.562;4.898;2022-07-22T08:01:12;6.87;;;6.17;;
7665;SDS011;3875;46.562;4.898;2022-07-22T08:03:37;10.27;;;6.57;;
7665;SDS011;3875;46.562;4.898;2022-07-22T08:06:03;6.80;;;6.10;;
7665;SDS011;3875;46.562;4.898;2022-07-22T08:08:29;7.37;;;6.23;;
7665;SDS011;3875;46.562;4.898;2022-07-22T08:10:55;9.37;;;6.27;;
7665;SDS011;3875;46.562;4.898;2022-07-22T08:13:20;7.27;;;6.53;;
7665;SDS011;3875;46.562;4.898;2022-07-22T08:15:46;7.13;;;6.10;;
7665;SDS011;3875;46.562;4.898;2022-07-22T08:18:12;8.10;;;6.10;;
7665;SDS011;3875;46.562;4.898;2022-07-22T08:20:38;6.70;;;6.10;;
7665;SDS011;3875;46.562;4.898;2022-07-22T08:23:04;7.27;;;6.53;;
7665;SDS011;3875;46.562;4.898;2022-07-22T08:25:29;7.63;;;5.87;;
7665;SDS011;3875;46.562;4.898;2022-07-22T08:27:55;8.73;;;6.20;;
7665;SDS011;3875;46.562;4.898;2022-07-22T08:30:21;8.40;;;6.37;;
7665;SDS011;3875;46.562;4.898;2022-07-22T08:32:52;7.20;;;6.50;;
7665;SDS011;3875;46.562;4.898;2022-07-22T08:35:18;8.47;;;6.37;;
7665;SDS011;3875;46.562;4.898;2022-07-22T08:37:44;6.50;;;5.90;;
7665;SDS011;3875;46.562;4.898;2022-07-22T08:40:11;6.50;;;5.80;;
7665;SDS011;3875;46.562;4.898;2022-07-22T08:42:40;10.47;;;6.47;;
7665;SDS011;3875;46.562;4.898;2022-07-22T08:45:08;7.50;;;6.20;;
7665;SDS011;3875;46.562;4.898;2022-07-22T08:47:35;7.03;;;5.70;;
7665;SDS011;3875;46.562;4.898;2022-07-22T08:50:02;8.03;;;6.20;;
7665;SDS011;3875;46.562;4.898;2022-07-22T08:52:29;6.90;;;6.00;;
7665;SDS011;3875;46.562;4.898;2022-07-22T08:54:55;8.73;;;6.97;;
7665;SDS011;3875;46.562;4.898;2022-07-22T08:57:21;6.90;;;6.20;;
7665;SDS011;3875;46.562;4.898;2022-07-22T08:59:54;6.50;;;5.80;;
7665;SDS011;3875;46.562;4.898;2022-07-22T09:02:21;6.90;;;6.30;;
7665;SDS011;3875;46.562;4.898;2022-07-22T09:04:53;7.87;;;6.10;;
7665;SDS011;3875;46.562;4.898;2022-07-22T09:07:30;8.50;;;6.10;;
7665;SDS011;3875;46.562;4.898;2022-07-22T09:10:01;9.33;;;6.23;;
7665;SDS011;3875;46.562;4.898;2022-07-22T09:12:32;6.87;;;6.27;;
7665;SDS011;3875;46.562;4.898;2022-07-22T09:15:00;9.02;;;6.60;;
7665;SDS011;3875;46.562;4.898;2022-07-22T09:17:28;8.13;;;5.93;;
7665;SDS011;3875;46.562;4.898;2022-07-22T09:19:59;7.45;;;6.03;;
7665;SDS011;3875;46.562;4.898;2022-07-22T09:30:31;7.20;;;6.50;;
7665;SDS011;3875;46.562;4.898;2022-07-22T09:33:02;7.38;;;6.32;;
7665;SDS011;3875;46.562;4.898;2022-07-22T09:35:29;6.65;;;5.90;;
7665;SDS011;3875;46.562;4.898;2022-07-22T09:37:56;8.88;;;5.85;;
7665;SDS011;3875;46.562;4.898;2022-07-22T09:40:24;6.05;;;5.55;;
7665;SDS011;3875;46.562;4.898;2022-07-22T09:42:58;6.47;;;5.82;;
7665;SDS011;3875;46.562;4.898;2022-07-22T09:45:29;9.30;;;6.32;;
7665;SDS011;3875;46.562;4.898;2022-07-22T09:47:57;6.75;;;5.85;;
7665;SDS011;3875;46.562;4.898;2022-07-22T09:50:26;6.55;;;5.95;;
7665;SDS011;3875;46.562;4.898;2022-07-22T09:52:57;8.00;;;6.15;;
7665;SDS011;3875;46.562;4.898;2022-07-22T09:55:24;6.90;;;6.00;;
7665;SDS011;3875;46.562;4.898;2022-07-22T09:57:52;6.72;;;6.20;;
7665;SDS011;3875;46.562;4.898;2022-07-22T10:00:20;6.35;;;5.85;;
7665;SDS011;3875;46.562;4.898;2022-07-22T10:05:27;6.57;;;5.97;;
7665;SDS011;3875;46.562;4.898;2022-07-22T10:07:54;6.55;;;5.72;;
7665;SDS011;3875;46.562;4.898;2022-07-22T10:10:23;6.82;;;5.53;;
7665;SDS011;3875;46.562;4.898;2022-07-22T10:12:51;6.63;;;6.03;;
7665;SDS011;3875;46.562;4.898;2022-07-22T10:15:18;6.03;;;5.53;;
7665;SDS011;3875;46.562;4.898;2022-07-22T10:17:46;7.68;;;5.55;;
7665;SDS011;3875;46.562;4.898;2022-07-22T10:20:23;7.03;;;5.47;;
7665;SDS011;3875;46.562;4.898;2022-07-22T10:22:55;8.02;;;5.55;;
7665;SDS011;3875;46.562;4.898;2022-07-22T10:25:23;6.90;;;5.88;;
7665;SDS011;3875;46.562;4.898;2022-07-22T10:27:57;5.75;;;5.22;;
7665;SDS011;3875;46.562;4.898;2022-07-22T10:30:25;6.25;;;5.63;;
7665;SDS011;3875;46.562;4.898;2022-07-22T10:33:01;5.38;;;4.95;;
7665;SDS011;3875;46.562;4.898;2022-07-22T10:35:31;5.93;;;5.32;;
7665;SDS011;3875;46.562;4.898;2022-07-22T10:37:59;6.85;;;6.25;;
7665;SDS011;3875;46.562;4.898;2022-07-22T10:40:30;6.43;;;5.80;;
7665;SDS011;3875;46.562;4.898;2022-07-22T10:43:15;5.95;;;5.40;;
7665;SDS011;3875;46.562;4.898;2022-07-22T10:45:49;6.43;;;5.85;;
7665;SDS011;3875;46.562;4.898;2022-07-22T10:48:23;6.53;;;5.60;;
7665;SDS011;3875;46.562;4.898;2022-07-22T10:53:39;5.72;;;5.13;;
7665;SDS011;3875;46.562;4.898;2022-07-22T10:56:06;6.07;;;5.53;;
7665;SDS011;3875;46.562;4.898;2022-07-22T10:58:39;6.00;;;5.50;;
7665;SDS011;3875;46.562;4.898;2022-07-22T11:01:08;5.65;;;5.15;;
7665;SDS011;3875;46.562;4.898;2022-07-22T11:03:36;6.22;;;5.63;;
7665;SDS011;3875;46.562;4.898;2022-07-22T11:08:42;6.15;;;5.60;;
7665;SDS011;3875;46.562;4.898;2022-07-22T11:11:08;5.90;;;5.40;;
7665;SDS011;3875;46.562;4.898;2022-07-22T11:13:35;6.40;;;5.30;;
7665;SDS011;3875;46.562;4.898;2022-07-22T11:18:49;8.65;;;5.53;;
7665;SDS011;3875;46.562;4.898;2022-07-22T11:21:21;5.10;;;4.60;;
7665;SDS011;3875;46.562;4.898;2022-07-22T11:23:49;5.43;;;4.95;;
7665;SDS011;3875;46.562;4.898;2022-07-22T11:26:17;6.65;;;4.93;;
7665;SDS011;3875;46.562;4.898;2022-07-22T11:28:48;9.02;;;5.05;;
7665;SDS011;3875;46.562;4.898;2022-07-22T11:31:15;5.10;;;4.50;;
7665;SDS011;3875;46.562;4.898;2022-07-22T11:33:43;5.90;;;5.10;;
7665;SDS011;3875;46.562;4.898;2022-07-22T11:36:10;5.15;;;4.65;;
7665;SDS011;3875;46.562;4.898;2022-07-22T11:38:43;5.45;;;5.03;;
7665;SDS011;3875;46.562;4.898;2022-07-22T11:41:09;7.25;;;4.68;;
7665;SDS011;3875;46.562;4.898;2022-07-22T11:43:40;6.22;;;5.00;;
7665;SDS011;3875;46.562;4.898;2022-07-22T11:46:11;6.78;;;4.90;;
7665;SDS011;3875;46.562;4.898;2022-07-22T11:48:38;5.40;;;4.90;;
7665;SDS011;3875;46.562;4.898;2022-07-22T11:51:05;5.43;;;4.68;;
7665;SDS011;3875;46.562;4.898;2022-07-22T11:53:31;5.15;;;4.57;;
7665;SDS011;3875;46.562;4.898;2022-07-22T11:55:59;5.68;;;4.40;;
7665;SDS011;3875;46.562;4.898;2022-07-22T11:58:36;6.18;;;4.82;;
7665;SDS011;3875;46.562;4.898;2022-07-22T12:01:08;5.78;;;5.22;;
7665;SDS011;3875;46.562;4.898;2022-07-22T12:03:36;5.40;;;4.90;;
7665;SDS011;3875;46.562;4.898;2022-07-22T12:06:03;7.07;;;5.25;;
7665;SDS011;3875;46.562;4.898;2022-07-22T12:08:32;5.45;;;4.95;;
7665;SDS011;3875;46.562;4.898;2022-07-22T12:10:58;5.13;;;4.63;;
7665;SDS011;3875;46.562;4.898;2022-07-22T12:13:31;5.75;;;4.65;;
7665;SDS011;3875;46.562;4.898;2022-07-22T12:15:57;7.45;;;5.32;;
7665;SDS011;3875;46.562;4.898;2022-07-22T12:18:24;8.32;;;5.28;;
7665;SDS011;3875;46.562;4.898;2022-07-22T12:20:53;6.00;;;5.18;;
7665;SDS011;3875;46.562;4.898;2022-07-22T12:23:20;6.95;;;5.93;;
7665;SDS011;3875;46.562;4.898;2022-07-22T12:28:23;6.00;;;5.40;;
7665;SDS011;3875;46.562;4.898;2022-07-22T12:30:50;6.20;;;5.60;;
7665;SDS011;3875;46.562;4.898;2022-07-22T12:33:21;6.13;;;5.63;;
7665;SDS011;3875;46.562;4.898;2022-07-22T12:36:01;6.32;;;5.65;;
7665;SDS011;3875;46.562;4.898;2022-07-22T12:38:31;5.95;;;5.45;;
7665;SDS011;3875;46.562;4.898;2022-07-22T12:41:20;5.97;;;5.38;;
7665;SDS011;3875;46.562;4.898;2022-07-22T12:43:46;5.55;;;4.65;;
7665;SDS011;3875;46.562;4.898;2022-07-22T12:46:13;6.07;;;5.53;;
7665;SDS011;3875;46.562;4.898;2022-07-22T12:48:38;7.55;;;5.63;;
7665;SDS011;3875;46.562;4.898;2022-07-22T12:51:17;7.38;;;4.68;;
7665;SDS011;3875;46.562;4.898;2022-07-22T12:53:43;5.72;;;5.18;;
7665;SDS011;3875;46.562;4.898;2022-07-22T12:56:09;5.20;;;4.80;;
7665;SDS011;3875;46.562;4.898;2022-07-22T12:58:36;6.93;;;5.50;;
7665;SDS011;3875;46.562;4.898;2022-07-22T13:01:05;7.53;;;5.30;;
7665;SDS011;3875;46.562;4.898;2022-07-22T13:03:31;5.95;;;5.35;;
7665;SDS011;3875;46.562;4.898;2022-07-22T13:05:59;5.75;;;5.25;;
7665;SDS011;3875;46.562;4.898;2022-07-22T13:08:27;6.03;;;5.45;;
7665;SDS011;3875;46.562;4.898;2022-07-22T13:10:54;6.05;;;5.47;;
7665;SDS011;3875;46.562;4.898;2022-07-22T13:13:20;6.15;;;5.60;;
7665;SDS011;3875;46.562;4.898;2022-07-22T13:15:47;6.03;;;4.93;;
7665;SDS011;3875;46.562;4.898;2022-07-22T13:18:13;6.03;;;5.32;;
7665;SDS011;3875;46.562;4.898;2022-07-22T13:20:39;5.75;;;5.18;;
7665;SDS011;3875;46.562;4.898;2022-07-22T13:23:05;5.50;;;4.90;;
7665;SDS011;3875;46.562;4.898;2022-07-22T13:25:31;5.95;;;4.82;;
7665;SDS011;3875;46.562;4.898;2022-07-22T13:27:58;7.93;;;5.55;;
7665;SDS011;3875;46.562;4.898;2022-07-22T13:30:23;7.72;;;5.32;;
7665;SDS011;3875;46.562;4.898;2022-07-22T13:32:50;6.75;;;5.15;;
7665;SDS011;3875;46.562;4.898;2022-07-22T13:35:16;4.97;;;4.57;;
7665;SDS011;3875;46.562;4.898;2022-07-22T13:37:42;7.47;;;5.43;;
7665;SDS011;3875;46.562;4.898;2022-07-22T13:40:09;7.95;;;5.60;;
7665;SDS011;3875;46.562;4.898;2022-07-22T13:42:34;6.15;;;5.55;;
7665;SDS011;3875;46.562;4.898;2022-07-22T13:45:00;6.70;;;5.28;;
7665;SDS011;3875;46.562;4.898;2022-07-22T13:47:26;5.60;;;5.20;;
7665;SDS011;3875;46.562;4.898;2022-07-22T13:49:52;7.55;;;5.18;;
7665;SDS011;3875;46.562;4.898;2022-07-22T13:52:18;5.30;;;4.90;;
7665;SDS011;3875;46.562;4.898;2022-07-22T13:54:44;9.18;;;6.10;;
7665;SDS011;3875;46.562;4.898;2022-07-22T13:57:10;5.22;;;4.72;;
7665;SDS011;3875;46.562;4.898;2022-07-22T13:59:36;6.43;;;5.18;;
7665;SDS011;3875;46.562;4.898;2022-07-22T14:02:03;5.70;;;5.20;;
7665;SDS011;3875;46.562;4.898;2022-07-22T14:04:29;5.78;;;5.28;;
7665;SDS011;3875;46.562;4.898;2022-07-22T14:06:55;5.40;;;4.90;;
7665;SDS011;3875;46.562;4.898;2022-07-22T14:09:21;8.02;;;5.50;;
7665;SDS011;3875;46.562;4.898;2022-07-22T14:11:47;5.55;;;5.05;;
7665;SDS011;3875;46.562;4.898;2022-07-22T14:14:13;5.47;;;4.97;;
7665;SDS011;3875;46.562;4.898;2022-07-22T14:16:39;7.30;;;5.50;;
7665;SDS011;3875;46.562;4.898;2022-07-22T14:19:06;6.95;;;5.53;;
7665;SDS011;3875;46.562;4.898;2022-07-22T14:21:33;7.53;;;5.78;;
7665;SDS011;3875;46.562;4.898;2022-07-22T14:24:00;5.78;;;5.30;;
7665;SDS011;3875;46.562;4.898;2022-07-22T14:26:27;6.05;;;5.45;;
7665;SDS011;3875;46.562;4.898;2022-07-22T14:28:53;6.95;;;5.65;;
7665;SDS011;3875;46.562;4.898;2022-07-22T14:31:19;5.72;;;5.30;;
7665;SDS011;3875;46.562;4.898;2022-07-22T14:33:45;7.53;;;5.63;;
7665;SDS011;3875;46.562;4.898;2022-07-22T14:36:11;6.32;;;5.80;;
7665;SDS011;3875;46.562;4.898;2022-07-22T14:38:37;7.28;;;5.10;;
7665;SDS011;3875;46.562;4.898;2022-07-22T14:41:03;6.07;;;5.50;;
7665;SDS011;3875;46.562;4.898;2022-07-22T14:43:29;5.70;;;5.28;;
7665;SDS011;3875;46.562;4.898;2022-07-22T14:45:55;6.30;;;5.55;;
7665;SDS011;3875;46.562;4.898;2022-07-22T14:48:21;7.13;;;5.28;;
7665;SDS011;3875;46.562;4.898;2022-07-22T14:50:46;7.60;;;5.88;;
7665;SDS011;3875;46.562;4.898;2022-07-22T14:53:12;8.93;;;5.22;;
7665;SDS011;3875;46.562;4.898;2022-07-22T14:55:39;7.00;;;5.65;;
7665;SDS011;3875;46.562;4.898;2022-07-22T14:58:05;5.65;;;5.15;;
7665;SDS011;3875;46.562;4.898;2022-07-22T15:00:31;7.00;;;5.78;;
7665;SDS011;3875;46.562;4.898;2022-07-22T15:02:56;6.00;;;5.40;;
7665;SDS011;3875;46.562;4.898;2022-07-22T15:05:22;6.47;;;5.38;;
7665;SDS011;3875;46.562;4.898;2022-07-22T15:07:49;6.10;;;5.18;;
7665;SDS011;3875;46.562;4.898;2022-07-22T15:10:15;6.35;;;5.70;;
7665;SDS011;3875;46.562;4.898;2022-07-22T15:12:41;7.50;;;5.25;;
7665;SDS011;3875;46.562;4.898;2022-07-22T15:15:06;7.38;;;5.75;;
7665;SDS011;3875;46.562;4.898;2022-07-22T15:17:34;6.93;;;5.20;;
7665;SDS011;3875;46.562;4.898;2022-07-22T15:20:00;9.45;;;5.25;;
7665;SDS011;3875;46.562;4.898;2022-07-22T15:22:27;6.28;;;5.30;;
7665;SDS011;3875;46.562;4.898;2022-07-22T15:24:53;6.45;;;5.85;;
7665;SDS011;3875;46.562;4.898;2022-07-22T15:27:19;5.55;;;5.05;;
7665;SDS011;3875;46.562;4.898;2022-07-22T15:29:45;6.38;;;5.78;;
7665;SDS011;3875;46.562;4.898;2022-07-22T15:32:13;6.05;;;5.45;;
7665;SDS011;3875;46.562;4.898;2022-07-22T15:34:39;5.43;;;4.82;;